Details From LLBG - Tel Aviv Ben Gurion
To LCPH - Pafos Intl
Flight Number -
Tags Generated
Created
Modified
Stats Distance 203 nm / 377 km
Max Altitude 0 ft / 0 m
Waypoints 2
Social Downloads 6
Likes 0
Share VATSIM

Download

Looking for another format? Having issues loading an existing format? Contact us
Advertisement - Login to hide

Notes

Generated

Route

LLBG LCPH

ID Type Via Altitude Latitude Longitude Leg Dist Tot Dist Heading (true) Name
O LLBG APT - 0 ft / 0 m 32.00417˚ 34.89117˚ - 0 nm - -
O LCPH APT - 0 ft / 0 m 34.72226˚ 32.47189˚ 203 nm 203 nm 324° / 323° -

Altitude Profile

Advertisement - Login to hide

Weather


0- 5 10 15 20 25 30 35+ Temperature / ° C

Clouds and Precipitation
Forecast for 2017-12-18 12:00 UTC. Updated 2 hours ago

Ground ~20,000 ft ~40,000 ft Winds

LLBG

Details ICAO LLBG (TLV)
Name Tel Aviv Ben Gurion
Region Israel
Timezone Asia/Jerusalem (UTC+2.0)
Stats Elevation 135 ft / 41 m (AMSL)
Location 32.011468° 34.885059°
Runways 3
Magnetic Variation 4.688° E

METAR

LLBG 181250Z 31007KT CAVOK 23/06 Q1018 NOSIG RMK BKN150

Decode

TAF

TAF TAF LLBG 181105Z 1812/1912 34006KT CAVOK BECMG 1814/1816 04004KT BECMG 1819/1821 10005KT PROB40 1906/1910 12012KT TX23/1812Z TN12/1904Z

Decode

Departure Runways

ID Width Length Bearing (true) Bearing (mag) Surface Threshold Offset Overrun Length
03 148 ft / 45 m 5,792 ft / 1,765 m 28.88° 24.19° Asphalt 0 ft / 0 m 216 ft / 66 m
08 148 ft / 45 m 12,017 ft / 3,663 m 79.72° 75.03° Asphalt 0 ft / 0 m 295 ft / 90 m
12 148 ft / 45 m 10,279 ft / 3,133 m 121.54° 116.85° Asphalt 0 ft / 0 m 328 ft / 100 m
21 148 ft / 45 m 5,792 ft / 1,765 m 208.88° 204.19° Asphalt 0 ft / 0 m 216 ft / 66 m
26 148 ft / 45 m 12,017 ft / 3,663 m 259.74° 255.05° Asphalt 1,969 ft / 600 m 205 ft / 62 m
30 148 ft / 45 m 10,279 ft / 3,133 m 301.56° 296.87° Asphalt 246 ft / 75 m 347 ft / 106 m

LCPH

Details ICAO LCPH (PFO)
Name PAFOS INTL
Region Cyprus
Timezone Asia/Nicosia (UTC+2.0)
Stats Elevation 41 ft / 12 m (AMSL)
Location 34.718038° 32.485731°
Runways 1
Magnetic Variation 4.918° E

METAR

LCPH 181300Z 16005KT CAVOK 20/15 Q1018

Decode

TAF

TAF LCPH 181130Z 1812/1912 18010KT 9999 FEW030 BECMG 1813/1815 24010KT BECMG 1815/1818 02008KT

Decode

Destination Runways

ID Width Length Bearing (true) Bearing (mag) Surface Threshold Offset Overrun Length
11 148 ft / 45 m 8,854 ft / 2,699 m 110.34° 105.42° Asphalt 0 ft / 0 m 0 ft / 0 m
29 148 ft / 45 m 8,854 ft / 2,699 m 290.36° 285.44° Asphalt 0 ft / 0 m 150 ft / 46 m

Approach Navaids

Runway Type Ident Frequency Range Bearing (true) Bearing (mag) Slope Elevation
29 Localiser IPA 108.90 MHz 18 nm / 33 km 292.21° 287.29° - 73 ft / 22 m (AMSL)
29 Glidescope IPA 108.90 MHz 10 nm / 19 km 290.35° 285.43° 3.00° 73 ft / 22 m (AMSL)
29 DME IPA 108.90 MHz 18 nm / 33 km - - - 73 ft / 22 m (AMSL)

Popular Alternatives